createdAt,value
2022-10-02T00:01:38.152Z,14.77
2022-10-02T00:04:13.434Z,16.77
2022-10-02T00:06:44.417Z,12.32
2022-10-02T00:09:21.753Z,25.30
2022-10-02T00:11:56.966Z,18.52
2022-10-02T00:14:29.277Z,17.92
2022-10-02T00:17:02.143Z,15.35
2022-10-02T00:19:30.708Z,18.42
2022-10-02T00:22:12.965Z,19.08
2022-10-02T00:24:47.636Z,17.90
2022-10-02T00:27:28.512Z,15.27
2022-10-02T00:30:00.958Z,15.90
2022-10-02T00:32:35.391Z,17.17
2022-10-02T00:35:37.323Z,15.30
2022-10-02T00:38:15.842Z,17.92
2022-10-02T00:41:04.579Z,11.07
2022-10-02T00:43:39.194Z,13.13
2022-10-02T00:46:28.416Z,22.15
2022-10-02T00:49:14.104Z,13.52
2022-10-02T00:51:53.589Z,21.25
2022-10-02T00:54:49.384Z,29.60
2022-10-02T00:57:31.624Z,30.40
2022-10-02T01:00:06.056Z,19.75
2022-10-02T01:03:09.772Z,17.77
2022-10-02T01:05:40.136Z,18.17
2022-10-02T01:08:09.109Z,17.58
2022-10-02T01:10:39.243Z,15.65
2022-10-02T01:13:08.508Z,17.10
2022-10-02T01:15:40.187Z,15.13
2022-10-02T01:18:11.077Z,14.07
2022-10-02T01:20:43.484Z,13.10
2022-10-02T01:23:25.024Z,18.00
2022-10-02T01:25:55.094Z,17.35
2022-10-02T01:28:24.264Z,15.13
2022-10-02T01:30:56.607Z,14.82
2022-10-02T01:33:25.205Z,14.40
2022-10-02T01:35:53.881Z,16.88
2022-10-02T01:38:24.868Z,16.38
2022-10-02T01:40:54.803Z,16.02
2022-10-02T01:43:28.216Z,23.80
2022-10-02T01:46:07.069Z,21.38
2022-10-02T01:48:46.147Z,18.67
2022-10-02T01:51:28.141Z,14.75
2022-10-02T01:54:06.274Z,16.38
2022-10-02T01:56:44.464Z,14.68
2022-10-02T01:59:23.589Z,15.05
2022-10-02T02:02:06.613Z,18.80
2022-10-02T02:04:43.490Z,18.42
2022-10-02T02:07:18.272Z,14.00
2022-10-02T02:09:57.037Z,13.32
2022-10-02T02:12:35.244Z,15.45
2022-10-02T02:15:08.725Z,14.50
2022-10-02T02:17:47.584Z,12.10
2022-10-02T02:20:19.869Z,14.93
2022-10-02T02:22:52.598Z,15.25
2022-10-02T02:25:24.415Z,13.63
2022-10-02T02:27:59.281Z,11.85
2022-10-02T02:30:31.731Z,14.00
2022-10-02T02:33:05.913Z,15.32
2022-10-02T02:35:38.987Z,12.98
2022-10-02T02:38:12.537Z,14.00
2022-10-02T02:40:45.138Z,13.55
2022-10-02T02:43:20.644Z,13.50
2022-10-02T02:45:53.991Z,12.65
2022-10-02T02:48:25.967Z,13.27
2022-10-02T02:50:59.455Z,12.07
2022-10-02T02:53:34.697Z,20.50
2022-10-02T02:56:07.035Z,17.75
2022-10-02T02:58:40.929Z,13.27
2022-10-02T03:01:09.662Z,12.80
2022-10-02T03:03:38.472Z,13.40
2022-10-02T03:06:25.531Z,13.07
2022-10-02T03:08:55.328Z,17.55
2022-10-02T03:11:38.202Z,17.40
2022-10-02T03:14:29.724Z,15.45
2022-10-02T03:17:09.521Z,12.02
2022-10-02T03:19:45.207Z,15.45
2022-10-02T03:22:21.968Z,13.50
2022-10-02T03:24:57.948Z,14.00
2022-10-02T03:27:35.179Z,16.52
2022-10-02T03:30:08.343Z,17.80
2022-10-02T03:32:38.933Z,17.67
2022-10-02T03:35:13.275Z,18.63
2022-10-02T03:40:12.627Z,14.48
2022-10-02T03:42:41.371Z,12.77
2022-10-02T03:45:23.061Z,15.20
2022-10-02T03:48:00.808Z,12.57
2022-10-02T03:50:32.890Z,13.88
2022-10-02T03:53:12.266Z,16.23
2022-10-02T03:55:45.108Z,16.15
2022-10-02T03:58:16.915Z,12.52
2022-10-02T04:00:58.552Z,11.65
2022-10-02T04:03:31.914Z,17.15
2022-10-02T04:06:05.003Z,11.00
2022-10-02T04:08:37.210Z,10.45
2022-10-02T04:11:13.075Z,13.07
2022-10-02T04:13:48.392Z,12.50
2022-10-02T04:16:22.109Z,14.32
2022-10-02T04:18:56.130Z,14.20
2022-10-02T04:21:34.508Z,12.88
2022-10-02T04:24:10.972Z,16.70
2022-10-02T04:26:45.505Z,14.93
2022-10-02T04:29:19.927Z,13.85
2022-10-02T04:34:20.840Z,14.35
2022-10-02T04:37:05.529Z,14.32
2022-10-02T04:42:26.040Z,15.30
2022-10-02T04:45:11.418Z,14.65
2022-10-02T04:48:27.486Z,12.93
2022-10-02T04:51:08.774Z,11.73
2022-10-02T04:53:51.579Z,12.45
2022-10-02T04:56:42.269Z,9.00
2022-10-02T04:59:24.437Z,10.63
2022-10-02T05:02:07.598Z,14.77
2022-10-02T05:05:01.675Z,13.82
2022-10-02T05:07:50.419Z,10.23
2022-10-02T05:10:35.376Z,12.80
2022-10-02T05:13:15.881Z,12.68
2022-10-02T05:16:05.832Z,14.13
2022-10-02T05:18:53.104Z,12.00
2022-10-02T05:21:41.597Z,12.82
2022-10-02T05:24:34.163Z,17.45
2022-10-02T05:27:13.828Z,10.65
2022-10-02T05:29:58.904Z,11.23
2022-10-02T05:32:53.907Z,14.27
2022-10-02T05:38:11.795Z,11.40
2022-10-02T05:40:50.668Z,13.23
2022-10-02T05:43:27.993Z,12.68
2022-10-02T05:45:59.894Z,15.77
2022-10-02T05:48:31.781Z,14.45
2022-10-02T05:51:06.181Z,11.90
2022-10-02T05:56:13.317Z,10.15
2022-10-02T05:58:51.585Z,12.35
2022-10-02T06:01:27.981Z,9.50
2022-10-02T06:04:04.492Z,12.43
2022-10-02T06:06:39.150Z,12.40
2022-10-02T06:09:18.964Z,12.75
2022-10-02T06:11:54.323Z,14.45
2022-10-02T06:17:01.856Z,11.18
2022-10-02T06:22:08.498Z,15.77
2022-10-02T06:24:43.538Z,18.83
2022-10-02T06:27:21.523Z,16.75
2022-10-02T06:29:55.492Z,16.80
2022-10-02T06:32:33.330Z,14.85
2022-10-02T06:35:03.047Z,15.98
2022-10-02T06:37:49.231Z,13.80
2022-10-02T06:40:42.783Z,16.20
2022-10-02T06:43:26.342Z,14.38
2022-10-02T06:46:03.353Z,14.35
2022-10-02T06:48:40.925Z,16.17
2022-10-02T06:51:18.249Z,10.55
2022-10-02T06:54:00.520Z,14.75
2022-10-02T06:56:44.436Z,15.98
2022-10-02T06:59:30.176Z,17.08
2022-10-02T07:02:10.933Z,19.90
2022-10-02T07:04:54.339Z,15.70
2022-10-02T07:07:36.957Z,13.05
2022-10-02T07:10:19.192Z,13.32
2022-10-02T07:13:09.588Z,14.50
2022-10-02T07:15:58.733Z,18.20
2022-10-02T07:18:42.836Z,18.65
2022-10-02T07:21:17.249Z,15.68
2022-10-02T07:26:48.816Z,16.25
2022-10-02T07:29:48.424Z,13.38
2022-10-02T07:32:54.112Z,17.10
2022-10-02T07:35:40.624Z,19.63
2022-10-02T07:38:21.995Z,17.77
2022-10-02T07:41:00.395Z,17.50
2022-10-02T07:43:44.890Z,16.48
2022-10-02T07:46:20.763Z,16.77
2022-10-02T07:49:00.244Z,18.63
2022-10-02T07:51:48.559Z,19.20
2022-10-02T07:54:56.583Z,19.33
2022-10-02T07:57:40.562Z,13.07
2022-10-02T08:00:15.145Z,21.08
2022-10-02T08:02:54.301Z,18.67
2022-10-02T08:05:27.891Z,20.20
2022-10-02T08:08:00.832Z,20.23
2022-10-02T08:10:37.892Z,15.77
2022-10-02T08:13:14.748Z,18.15
2022-10-02T08:15:47.289Z,18.20
2022-10-02T08:18:34.202Z,19.63
2022-10-02T08:21:10.071Z,16.83
2022-10-02T08:23:44.037Z,21.33
2022-10-02T08:26:20.045Z,21.02
2022-10-02T08:28:57.220Z,15.88
2022-10-02T08:31:26.893Z,15.30
2022-10-02T08:33:56.198Z,16.67
2022-10-02T08:36:48.344Z,18.00
2022-10-02T08:39:53.051Z,20.35
2022-10-02T08:42:57.755Z,16.85
2022-10-02T08:45:52.714Z,16.23
2022-10-02T08:51:27.278Z,15.77
2022-10-02T08:54:35.200Z,15.90
2022-10-02T08:57:27.099Z,18.70
2022-10-02T09:00:24.004Z,17.27
2022-10-02T09:03:30.027Z,16.67
2022-10-02T09:06:38.808Z,19.50
2022-10-02T09:10:01.611Z,15.30
2022-10-02T09:13:15.117Z,21.15
2022-10-02T09:15:47.948Z,15.20
2022-10-02T09:18:20.287Z,18.85
2022-10-02T09:21:15.557Z,18.35
2022-10-02T09:24:50.469Z,19.10
2022-10-02T09:27:51.656Z,13.95
2022-10-02T09:30:59.170Z,15.65
2022-10-02T09:34:04.338Z,18.92
2022-10-02T09:36:49.516Z,17.95
2022-10-02T09:39:52.827Z,15.35
2022-10-02T09:42:44.381Z,18.60
2022-10-02T09:45:33.236Z,17.65
2022-10-02T09:48:52.388Z,17.48
2022-10-02T09:52:05.316Z,18.80
2022-10-02T09:55:04.174Z,19.40
2022-10-02T09:57:57.424Z,15.95
2022-10-02T10:00:54.027Z,20.65
2022-10-02T10:04:00.821Z,17.58
2022-10-02T10:06:57.931Z,18.58
2022-10-02T10:10:12.385Z,16.55
2022-10-02T10:13:25.815Z,19.42
2022-10-02T10:16:41.339Z,15.38
2022-10-02T10:22:12.446Z,21.42
2022-10-02T10:25:22.681Z,16.02
2022-10-02T10:28:14.624Z,16.08
2022-10-02T10:31:10.145Z,12.40
2022-10-02T10:34:21.912Z,13.70
2022-10-02T10:37:18.531Z,14.50
2022-10-02T10:40:26.592Z,14.32
2022-10-02T10:43:32.104Z,10.52
2022-10-02T10:46:33.532Z,14.02
2022-10-02T10:49:45.179Z,12.55
2022-10-02T10:52:21.671Z,11.95
2022-10-02T10:55:07.620Z,12.85
2022-10-02T10:57:51.361Z,12.95
2022-10-02T11:00:23.615Z,11.40
2022-10-02T11:03:17.342Z,14.52
2022-10-02T11:06:15.324Z,13.13
2022-10-02T11:09:20.059Z,14.05
2022-10-02T11:12:07.508Z,16.05
2022-10-02T11:14:50.657Z,16.25
2022-10-02T11:17:46.657Z,17.30
2022-10-02T11:20:51.446Z,15.90
2022-10-02T11:23:39.108Z,16.45
2022-10-02T11:26:34.367Z,10.82
2022-10-02T11:29:40.716Z,12.00
2022-10-02T11:32:28.392Z,11.82
2022-10-02T11:35:23.547Z,15.05
2022-10-02T11:38:07.183Z,14.45
2022-10-02T11:40:54.376Z,12.25
2022-10-02T11:43:43.954Z,16.08
2022-10-02T11:46:23.519Z,15.32
2022-10-02T11:49:20.413Z,11.35
2022-10-02T11:52:06.135Z,14.35
2022-10-02T11:54:46.842Z,11.98
2022-10-02T11:57:29.277Z,10.25
2022-10-02T12:00:33.774Z,16.08
2022-10-02T12:03:10.696Z,13.32
2022-10-02T12:05:55.709Z,15.43
2022-10-02T12:08:37.089Z,14.57
2022-10-02T12:11:11.508Z,12.65
2022-10-02T12:14:01.436Z,13.30
2022-10-02T12:16:42.678Z,12.85
2022-10-02T12:19:21.631Z,11.93
2022-10-02T12:22:18.349Z,13.98
2022-10-02T12:25:16.293Z,12.48
2022-10-02T12:27:55.860Z,12.07
2022-10-02T12:30:33.070Z,12.43
2022-10-02T12:33:25.320Z,16.13
2022-10-02T12:36:21.370Z,11.90
2022-10-02T12:39:05.492Z,12.40
2022-10-02T12:41:54.531Z,13.18
2022-10-02T12:44:44.224Z,11.45
2022-10-02T12:47:31.128Z,13.98
2022-10-02T12:50:11.903Z,12.50
2022-10-02T12:53:31.613Z,11.90
2022-10-02T12:56:20.211Z,10.43
2022-10-02T12:59:02.638Z,12.02
2022-10-02T13:02:49.064Z,11.07
2022-10-02T13:05:53.508Z,11.90
2022-10-02T13:08:34.388Z,10.38
2022-10-02T13:11:13.014Z,9.13
2022-10-02T13:14:07.696Z,9.13
2022-10-02T13:17:00.936Z,8.05
2022-10-02T13:19:36.883Z,13.43
2022-10-02T13:22:17.252Z,11.90
2022-10-02T13:25:01.032Z,10.50
2022-10-02T13:27:38.984Z,10.93
2022-10-02T13:30:15.275Z,9.90
2022-10-02T13:33:00.314Z,9.50
2022-10-02T13:36:04.226Z,7.85
2022-10-02T13:38:59.964Z,10.27
2022-10-02T13:41:41.439Z,10.15
2022-10-02T13:44:22.238Z,7.65
2022-10-02T13:47:18.946Z,14.05
2022-10-02T13:50:04.084Z,10.02
2022-10-02T13:52:42.603Z,10.15
2022-10-02T13:55:25.756Z,8.80
2022-10-02T13:58:08.622Z,10.27
2022-10-02T14:01:05.580Z,11.82
2022-10-02T14:03:48.135Z,11.10
2022-10-02T14:06:23.247Z,11.20
2022-10-02T14:09:22.938Z,11.00
2022-10-02T14:12:05.063Z,11.43
2022-10-02T14:14:51.167Z,11.57
2022-10-02T14:17:33.179Z,12.05
2022-10-02T14:20:32.261Z,11.88
2022-10-02T14:23:14.967Z,10.48
2022-10-02T14:25:55.724Z,12.05
2022-10-02T14:28:48.871Z,9.85
2022-10-02T14:31:35.125Z,10.15
2022-10-02T14:34:33.139Z,9.77
2022-10-02T14:37:35.262Z,10.02
2022-10-02T14:40:13.578Z,11.65
2022-10-02T14:43:12.073Z,12.10
2022-10-02T14:46:16.568Z,10.00
2022-10-02T14:49:12.468Z,13.68
2022-10-02T14:52:09.221Z,10.27
2022-10-02T14:55:06.891Z,10.07
2022-10-02T14:58:04.729Z,13.32
2022-10-02T15:00:44.707Z,9.75
2022-10-02T15:03:41.048Z,13.02
2022-10-02T15:06:27.107Z,13.13
2022-10-02T15:08:59.831Z,11.40
2022-10-02T15:11:53.035Z,9.68
2022-10-02T15:14:32.253Z,12.35
2022-10-02T15:17:21.882Z,12.20
2022-10-02T15:20:00.310Z,10.55
2022-10-02T15:22:35.847Z,10.05
2022-10-02T15:25:18.077Z,12.85
2022-10-02T15:27:54.671Z,12.02
2022-10-02T15:30:26.842Z,11.85
2022-10-02T15:33:11.495Z,11.60
2022-10-02T15:36:12.928Z,11.93
2022-10-02T15:38:55.445Z,12.57
2022-10-02T15:41:40.641Z,9.85
2022-10-02T15:44:44.802Z,8.75
2022-10-02T15:47:32.033Z,8.20
2022-10-02T15:50:24.327Z,11.05
2022-10-02T15:53:07.317Z,14.95
2022-10-02T15:55:41.892Z,13.88
2022-10-02T15:58:24.397Z,11.13
2022-10-02T16:01:18.743Z,14.90
2022-10-02T16:03:51.853Z,14.40
2022-10-02T16:06:35.309Z,10.48
2022-10-02T16:09:35.949Z,21.00
2022-10-02T16:12:29.835Z,10.60
2022-10-02T16:15:09.477Z,10.95
2022-10-02T16:18:04.477Z,11.60
2022-10-02T16:21:12.691Z,10.70
2022-10-02T16:24:06.128Z,10.95
2022-10-02T16:27:02.545Z,12.20
2022-10-02T16:29:42.808Z,16.83
2022-10-02T16:32:21.025Z,10.60
2022-10-02T16:35:11.386Z,12.07
2022-10-02T16:37:46.268Z,15.55
2022-10-02T16:40:29.426Z,13.48
2022-10-02T16:43:36.853Z,16.20
2022-10-02T16:46:11.164Z,33.10
2022-10-02T16:51:27.496Z,22.45
2022-10-02T16:54:02.309Z,31.75
2022-10-02T16:56:35.606Z,30.02
2022-10-02T16:59:12.882Z,30.50
2022-10-02T17:02:12.687Z,34.63
2022-10-02T17:04:47.124Z,38.17
2022-10-02T17:07:42.628Z,52.38
2022-10-02T17:10:22.453Z,40.22
2022-10-02T17:12:58.903Z,25.75
2022-10-02T17:15:35.864Z,85.60
2022-10-02T17:18:18.836Z,58.60
2022-10-02T17:20:52.023Z,38.75
2022-10-02T17:23:28.019Z,55.67
2022-10-02T17:26:07.048Z,33.65
2022-10-02T17:28:44.988Z,51.22
2022-10-02T17:31:35.709Z,62.22
2022-10-02T17:34:20.014Z,36.60
2022-10-02T17:37:02.326Z,49.10
2022-10-02T17:39:57.170Z,35.40
2022-10-02T17:42:53.114Z,28.55
2022-10-02T17:45:32.989Z,37.75
2022-10-02T17:48:20.421Z,26.38
2022-10-02T17:51:40.471Z,26.13
2022-10-02T17:54:37.932Z,26.88
2022-10-02T17:57:30.007Z,34.42
2022-10-02T18:00:13.130Z,42.75
2022-10-02T18:02:56.372Z,33.33
2022-10-02T18:05:33.816Z,35.05
2022-10-02T18:08:18.812Z,27.33
2022-10-02T18:11:01.173Z,35.17
2022-10-02T18:13:42.593Z,81.55
2022-10-02T18:16:29.881Z,57.95
2022-10-02T18:19:27.852Z,55.35
2022-10-02T18:22:12.624Z,35.80
2022-10-02T18:25:12.386Z,25.50
2022-10-02T18:28:10.507Z,27.80
2022-10-02T18:30:49.286Z,33.13
2022-10-02T18:34:06.939Z,19.35
2022-10-02T18:36:54.425Z,20.30
2022-10-02T18:39:41.019Z,17.63
2022-10-02T18:42:39.952Z,21.23
2022-10-02T18:45:27.444Z,17.13
2022-10-02T18:48:19.626Z,15.82
2022-10-02T18:51:04.462Z,18.95
2022-10-02T18:53:59.519Z,18.40
2022-10-02T18:59:23.480Z,16.25
2022-10-02T19:02:02.652Z,15.90
2022-10-02T19:05:04.024Z,19.45
2022-10-02T19:07:42.267Z,16.90
2022-10-02T19:10:29.589Z,19.13
2022-10-02T19:13:04.600Z,18.05
2022-10-02T19:15:34.753Z,22.55
2022-10-02T19:18:04.937Z,16.42
2022-10-02T19:20:48.235Z,15.98
2022-10-02T19:23:26.312Z,17.75
2022-10-02T19:25:57.186Z,16.77
2022-10-02T19:28:30.219Z,15.55
2022-10-02T19:31:02.123Z,12.88
2022-10-02T19:33:45.133Z,14.52
2022-10-02T19:36:19.380Z,18.52
2022-10-02T19:38:54.759Z,23.35
2022-10-02T19:41:24.592Z,21.13
2022-10-02T19:43:58.990Z,25.80
2022-10-02T19:46:35.750Z,24.30
2022-10-02T19:49:05.987Z,16.80
2022-10-02T19:51:44.173Z,19.15
2022-10-02T19:54:17.338Z,14.68
2022-10-02T19:56:47.066Z,19.45
2022-10-02T19:59:20.270Z,16.20
2022-10-02T20:01:52.993Z,13.75
2022-10-02T20:04:24.550Z,15.68
2022-10-02T20:06:56.555Z,14.48
2022-10-02T20:09:34.649Z,19.02
2022-10-02T20:12:08.381Z,14.25
2022-10-02T20:14:43.636Z,13.95
2022-10-02T20:17:13.487Z,13.18
2022-10-02T20:19:48.274Z,12.35
2022-10-02T20:22:25.480Z,16.38
2022-10-02T20:24:59.795Z,13.70
2022-10-02T20:30:12.008Z,16.08
2022-10-02T20:32:47.307Z,15.43
2022-10-02T20:35:20.053Z,15.00
2022-10-02T20:37:52.366Z,12.63
2022-10-02T20:40:26.621Z,16.65
2022-10-02T20:43:01.539Z,14.63
2022-10-02T20:45:37.865Z,16.02
2022-10-02T20:48:56.024Z,18.00
2022-10-02T20:51:45.049Z,18.85
2022-10-02T20:54:33.558Z,19.10
2022-10-02T20:57:20.866Z,17.27
2022-10-02T21:00:05.633Z,14.98
2022-10-02T21:03:05.044Z,15.38
2022-10-02T21:05:57.626Z,16.70
2022-10-02T21:08:48.067Z,14.57
2022-10-02T21:11:27.711Z,13.90
2022-10-02T21:14:31.171Z,18.25
2022-10-02T21:17:24.018Z,19.30
2022-10-02T21:20:51.201Z,16.30
2022-10-02T21:23:56.333Z,18.17
2022-10-02T21:26:49.187Z,24.57
2022-10-02T21:29:54.841Z,15.32
2022-10-02T21:32:42.500Z,20.48
2022-10-02T21:35:16.950Z,17.75
2022-10-02T21:38:01.344Z,15.88
2022-10-02T21:41:01.544Z,17.92
2022-10-02T21:44:00.198Z,16.73
2022-10-02T21:46:45.582Z,19.92
2022-10-02T21:50:03.407Z,18.23
2022-10-02T21:53:03.756Z,19.02
2022-10-02T21:56:04.566Z,15.98
2022-10-02T21:59:08.240Z,15.45
2022-10-02T22:02:14.549Z,19.75
2022-10-02T22:05:23.565Z,18.20
2022-10-02T22:08:01.055Z,22.92
2022-10-02T22:10:35.377Z,19.05
2022-10-02T22:15:56.134Z,19.88
2022-10-02T22:18:34.147Z,20.13
2022-10-02T22:21:31.866Z,20.08
2022-10-02T22:24:17.887Z,19.65
2022-10-02T22:27:05.878Z,16.88
2022-10-02T22:29:45.843Z,21.80
2022-10-02T22:32:50.652Z,15.00
2022-10-02T22:35:29.945Z,19.33
2022-10-02T22:38:13.180Z,16.13
2022-10-02T22:40:48.092Z,18.58
2022-10-02T22:43:25.794Z,20.48
2022-10-02T22:46:01.328Z,20.48
2022-10-02T22:48:38.907Z,23.40
2022-10-02T22:51:17.347Z,18.30
2022-10-02T22:53:52.273Z,22.13
2022-10-02T22:56:28.847Z,21.75
2022-10-02T22:59:10.556Z,25.23
2022-10-02T23:01:47.412Z,20.20
2022-10-02T23:04:26.264Z,19.75
2022-10-02T23:07:01.229Z,17.38
2022-10-02T23:09:41.639Z,16.58
2022-10-02T23:12:16.277Z,18.48
2022-10-02T23:14:58.447Z,20.17
2022-10-02T23:17:36.853Z,23.33
2022-10-02T23:20:13.163Z,19.48
2022-10-02T23:22:51.424Z,14.20
2022-10-02T23:25:26.213Z,17.73
2022-10-02T23:27:59.213Z,22.35
2022-10-02T23:30:29.933Z,16.30
2022-10-02T23:33:04.109Z,21.75
2022-10-02T23:35:40.070Z,21.35
2022-10-02T23:38:17.121Z,21.85
2022-10-02T23:41:22.306Z,25.05
2022-10-02T23:44:00.782Z,21.20
2022-10-02T23:46:35.866Z,24.27
2022-10-02T23:49:05.918Z,23.35
2022-10-02T23:51:52.189Z,20.27
2022-10-02T23:54:42.151Z,18.08
2022-10-02T23:57:33.268Z,24.25
